createdAt,value
2019-05-18T00:01:51.442Z,7.00
2019-05-18T00:04:20.819Z,6.27
2019-05-18T00:06:47.605Z,6.17
2019-05-18T00:09:14.419Z,6.13
2019-05-18T00:11:41.375Z,6.17
2019-05-18T00:14:08.164Z,6.30
2019-05-18T00:16:36.400Z,6.50
2019-05-18T00:19:03.549Z,6.70
2019-05-18T00:21:30.459Z,5.90
2019-05-18T00:23:57.298Z,5.77
2019-05-18T00:26:24.555Z,6.07
2019-05-18T00:28:51.451Z,6.10
2019-05-18T00:31:18.268Z,6.30
2019-05-18T00:33:45.523Z,5.80
2019-05-18T00:36:12.410Z,5.50
2019-05-18T00:38:40.319Z,5.70
2019-05-18T00:41:07.285Z,5.60
2019-05-18T00:43:34.173Z,6.20
2019-05-18T00:46:03.431Z,5.57
2019-05-18T00:48:30.163Z,5.87
2019-05-18T00:50:56.849Z,5.93
2019-05-18T00:53:23.750Z,5.47
2019-05-18T00:55:50.489Z,6.37
2019-05-18T00:58:17.737Z,5.87
2019-05-18T01:00:44.781Z,5.50
2019-05-18T01:03:11.496Z,5.83
2019-05-18T01:05:38.375Z,5.40
2019-05-18T01:08:05.433Z,5.37
2019-05-18T01:10:34.168Z,5.57
2019-05-18T01:13:00.890Z,5.90
2019-05-18T01:15:31.606Z,5.83
2019-05-18T01:18:02.012Z,5.87
2019-05-18T01:20:27.176Z,5.83
2019-05-18T01:22:53.902Z,5.80
2019-05-18T01:25:20.657Z,5.33
2019-05-18T01:27:47.538Z,5.50
2019-05-18T01:30:16.773Z,5.57
2019-05-18T01:32:43.520Z,5.00
2019-05-18T01:35:10.677Z,5.20
2019-05-18T01:37:37.710Z,5.23
2019-05-18T01:40:07.361Z,5.93
2019-05-18T01:42:35.706Z,5.60
2019-05-18T01:45:15.856Z,6.20
2019-05-18T01:47:34.303Z,5.20
2019-05-18T01:50:05.203Z,5.47
2019-05-18T01:52:31.889Z,5.77
2019-05-18T01:54:58.957Z,5.87
2019-05-18T01:57:25.641Z,5.93
2019-05-18T01:59:52.398Z,5.90
2019-05-18T02:02:19.043Z,5.70
2019-05-18T02:04:45.763Z,5.77
2019-05-18T02:07:12.494Z,6.07
2019-05-18T02:09:39.161Z,5.40
2019-05-18T02:12:05.877Z,5.43
2019-05-18T02:14:32.596Z,5.87
2019-05-18T02:16:59.419Z,5.50
2019-05-18T02:19:26.136Z,5.10
2019-05-18T02:21:52.916Z,5.77
2019-05-18T02:24:19.650Z,5.33
2019-05-18T02:26:46.384Z,5.63
2019-05-18T02:29:15.323Z,5.67
2019-05-18T02:31:41.946Z,5.50
2019-05-18T02:34:08.734Z,5.17
2019-05-18T02:36:35.513Z,4.90
2019-05-18T02:39:04.305Z,5.60
2019-05-18T02:41:31.017Z,5.43
2019-05-18T02:43:57.709Z,5.27
2019-05-18T02:46:24.431Z,5.23
2019-05-18T02:48:51.255Z,5.60
2019-05-18T02:51:18.287Z,4.87
2019-05-18T02:53:44.998Z,5.00
2019-05-18T02:56:11.711Z,5.70
2019-05-18T02:58:39.376Z,5.43
2019-05-18T03:01:06.097Z,5.30
2019-05-18T03:03:33.193Z,4.83
2019-05-18T03:05:59.896Z,5.30
2019-05-18T03:08:26.605Z,5.20
2019-05-18T03:10:54.740Z,5.33
2019-05-18T03:13:21.451Z,4.93
2019-05-18T03:15:50.574Z,5.63
2019-05-18T03:18:17.311Z,5.20
2019-05-18T03:20:44.666Z,4.77
2019-05-18T03:23:11.445Z,5.20
2019-05-18T03:25:41.172Z,5.50
2019-05-18T03:28:07.910Z,5.47
2019-05-18T03:30:34.651Z,4.90
2019-05-18T03:33:01.403Z,5.50
2019-05-18T03:35:28.139Z,5.60
2019-05-18T03:37:54.841Z,5.20
2019-05-18T03:40:21.581Z,5.97
2019-05-18T03:42:48.344Z,4.80
2019-05-18T03:45:15.189Z,5.20
2019-05-18T03:47:42.063Z,5.47
2019-05-18T03:50:08.792Z,5.40
2019-05-18T03:52:38.009Z,5.47
2019-05-18T03:55:04.814Z,5.50
2019-05-18T03:57:31.533Z,5.80
2019-05-18T03:59:58.221Z,5.40
2019-05-18T04:02:25.350Z,5.63
2019-05-18T04:04:52.141Z,5.40
2019-05-18T04:07:18.911Z,6.20
2019-05-18T04:09:46.021Z,5.30
2019-05-18T04:12:12.824Z,5.10
2019-05-18T04:14:39.536Z,6.17
2019-05-18T04:17:06.521Z,5.67
2019-05-18T04:19:45.482Z,5.50
2019-05-18T04:22:03.784Z,5.90
2019-05-18T04:24:30.523Z,6.43
2019-05-18T04:26:57.255Z,5.97
2019-05-18T04:29:23.981Z,6.20
2019-05-18T04:31:50.681Z,5.90
2019-05-18T04:34:17.469Z,6.03
2019-05-18T04:36:47.786Z,7.23
2019-05-18T04:39:14.792Z,6.50
2019-05-18T04:41:41.610Z,6.20
2019-05-18T04:44:08.460Z,6.47
2019-05-18T04:46:35.685Z,6.00
2019-05-18T04:49:02.365Z,6.00
2019-05-18T04:51:29.474Z,5.83
2019-05-18T04:53:56.145Z,5.73
2019-05-18T04:56:22.904Z,6.53
2019-05-18T04:58:49.678Z,5.10
2019-05-18T05:01:19.415Z,5.70
2019-05-18T05:03:46.110Z,6.80
2019-05-18T05:06:12.849Z,6.03
2019-05-18T05:08:39.574Z,6.23
2019-05-18T05:11:06.396Z,6.10
2019-05-18T05:13:33.386Z,5.50
2019-05-18T05:16:00.119Z,5.73
2019-05-18T05:18:27.209Z,5.70
2019-05-18T05:20:53.924Z,5.77
2019-05-18T05:23:20.665Z,5.37
2019-05-18T05:25:47.681Z,5.73
2019-05-18T05:28:14.384Z,5.70
2019-05-18T05:30:41.412Z,6.03
2019-05-18T05:33:08.156Z,6.20
2019-05-18T05:35:37.614Z,6.80
2019-05-18T05:38:03.622Z,6.90
2019-05-18T05:40:30.336Z,6.50
2019-05-18T05:42:57.062Z,7.07
2019-05-18T05:45:23.802Z,6.70
2019-05-18T05:47:50.630Z,7.00
2019-05-18T05:50:17.363Z,7.00
2019-05-18T05:52:46.488Z,7.10
2019-05-18T05:55:13.266Z,7.87
2019-05-18T05:57:39.989Z,7.60
2019-05-18T06:00:06.901Z,7.07
2019-05-18T06:02:33.904Z,8.17
2019-05-18T06:05:00.883Z,8.27
2019-05-18T06:07:27.587Z,7.60
2019-05-18T06:09:56.715Z,7.30
2019-05-18T06:12:23.408Z,7.87
2019-05-18T06:14:56.206Z,7.47
2019-05-18T06:17:23.036Z,7.87
2019-05-18T06:19:55.162Z,6.57
2019-05-18T06:22:23.137Z,7.93
2019-05-18T06:24:50.035Z,7.57
2019-05-18T06:27:17.802Z,8.00
2019-05-18T06:29:49.802Z,7.20
2019-05-18T06:32:19.466Z,7.83
2019-05-18T06:34:46.600Z,7.00
2019-05-18T06:37:13.356Z,7.50
2019-05-18T06:39:40.109Z,7.27
2019-05-18T06:42:07.281Z,7.97
2019-05-18T06:44:37.614Z,7.57
2019-05-18T06:47:07.597Z,7.80
2019-05-18T06:49:37.284Z,7.40
2019-05-18T06:52:06.382Z,8.10
2019-05-18T06:54:33.114Z,7.60
2019-05-18T06:56:59.870Z,8.40
2019-05-18T06:59:26.686Z,8.53
2019-05-18T07:01:56.466Z,7.80
2019-05-18T07:04:25.199Z,8.30
2019-05-18T07:06:51.904Z,8.00
2019-05-18T07:09:18.993Z,7.93
2019-05-18T07:11:45.733Z,7.43
2019-05-18T07:14:24.962Z,8.03
2019-05-18T07:16:41.609Z,7.97
2019-05-18T07:19:08.351Z,8.53
2019-05-18T07:21:35.341Z,8.23
2019-05-18T07:24:02.401Z,8.53
2019-05-18T07:26:29.182Z,7.73
2019-05-18T07:28:56.126Z,8.00
2019-05-18T07:31:22.981Z,8.43
2019-05-18T07:33:49.846Z,7.80
2019-05-18T07:36:16.602Z,8.70
2019-05-18T07:38:43.532Z,7.20
2019-05-18T07:41:13.337Z,9.00
2019-05-18T07:43:40.054Z,8.07
2019-05-18T07:46:08.757Z,8.23
2019-05-18T07:48:35.438Z,7.87
2019-05-18T07:51:02.541Z,8.10
2019-05-18T07:53:31.866Z,9.90
2019-05-18T07:55:58.587Z,8.47
2019-05-18T07:58:25.675Z,9.57
2019-05-18T08:00:52.497Z,8.30
2019-05-18T08:03:19.252Z,8.10
2019-05-18T08:05:46.971Z,8.43
2019-05-18T08:08:13.701Z,8.40
2019-05-18T08:10:43.857Z,8.50
2019-05-18T08:13:11.051Z,9.00
2019-05-18T08:15:38.132Z,7.83
2019-05-18T08:18:04.935Z,9.73
2019-05-18T08:20:32.057Z,8.70
2019-05-18T08:22:58.748Z,8.70
2019-05-18T08:25:25.494Z,9.40
2019-05-18T08:27:52.336Z,8.27
2019-05-18T08:30:19.391Z,8.40
2019-05-18T08:32:46.740Z,8.90
2019-05-18T08:35:13.654Z,8.27
2019-05-18T08:37:40.472Z,8.10
2019-05-18T08:40:07.301Z,8.70
2019-05-18T08:42:34.052Z,8.17
2019-05-18T08:45:00.793Z,7.40
2019-05-18T08:47:27.804Z,7.80
2019-05-18T08:49:55.250Z,8.13
2019-05-18T08:52:22.294Z,7.90
2019-05-18T08:54:49.616Z,7.73
2019-05-18T08:57:16.801Z,8.40
2019-05-18T08:59:43.854Z,8.57
2019-05-18T09:02:10.570Z,9.07
2019-05-18T09:04:37.502Z,7.87
2019-05-18T09:07:04.400Z,7.80
2019-05-18T09:09:31.531Z,7.73
2019-05-18T09:11:58.309Z,8.43
2019-05-18T09:14:25.437Z,8.00
2019-05-18T09:16:52.156Z,8.33
2019-05-18T09:19:19.046Z,7.70
2019-05-18T09:21:45.816Z,8.77
2019-05-18T09:24:12.611Z,8.70
2019-05-18T09:26:39.626Z,7.90
2019-05-18T09:29:06.368Z,8.67
2019-05-18T09:31:33.058Z,8.50
2019-05-18T09:33:59.808Z,8.50
2019-05-18T09:36:26.972Z,7.90
2019-05-18T09:38:54.510Z,8.07
2019-05-18T09:41:22.009Z,9.00
2019-05-18T09:43:49.071Z,8.30
2019-05-18T09:46:15.804Z,8.27
2019-05-18T09:48:42.544Z,8.77
2019-05-18T09:51:09.593Z,7.63
2019-05-18T09:53:36.676Z,7.70
2019-05-18T09:56:03.912Z,8.10
2019-05-18T09:58:30.645Z,8.77
2019-05-18T10:00:57.402Z,7.90
2019-05-18T10:03:24.177Z,8.67
2019-05-18T10:05:51.133Z,8.50
2019-05-18T10:08:19.777Z,8.23
2019-05-18T10:10:46.495Z,8.57
2019-05-18T10:13:13.214Z,7.80
2019-05-18T10:15:39.908Z,8.47
2019-05-18T10:18:06.707Z,7.90
2019-05-18T10:20:33.749Z,7.57
2019-05-18T10:23:12.523Z,7.37
2019-05-18T10:25:29.093Z,7.83
2019-05-18T10:27:55.835Z,7.70
2019-05-18T10:30:23.199Z,6.53
2019-05-18T10:32:50.444Z,6.70
2019-05-18T10:35:17.274Z,7.30
2019-05-18T10:37:44.394Z,8.00
2019-05-18T10:40:11.220Z,7.00
2019-05-18T10:42:38.408Z,6.87
2019-05-18T10:45:05.653Z,8.23
2019-05-18T10:47:32.773Z,7.97
2019-05-18T10:50:00.077Z,8.17
2019-05-18T10:52:26.776Z,6.90
2019-05-18T10:54:53.847Z,6.77
2019-05-18T10:57:20.591Z,6.17
2019-05-18T10:59:47.319Z,7.30
2019-05-18T11:02:14.513Z,6.73
2019-05-18T11:04:41.238Z,7.60
2019-05-18T11:07:08.468Z,6.40
2019-05-18T11:09:35.310Z,7.50
2019-05-18T11:12:03.688Z,7.23
2019-05-18T11:14:33.394Z,6.87
2019-05-18T11:17:03.687Z,7.10
2019-05-18T11:19:32.227Z,5.83
2019-05-18T11:22:00.760Z,6.60
2019-05-18T11:24:27.578Z,5.73
2019-05-18T11:26:54.283Z,7.27
2019-05-18T11:29:23.400Z,6.30
2019-05-18T11:31:49.812Z,6.30
2019-05-18T11:34:16.911Z,6.23
2019-05-18T11:36:44.097Z,5.97
2019-05-18T11:39:11.454Z,6.10
2019-05-18T11:41:38.505Z,6.10
2019-05-18T11:44:10.803Z,6.03
2019-05-18T11:46:37.156Z,4.87
2019-05-18T11:49:03.877Z,4.97
2019-05-18T11:51:30.997Z,6.70
2019-05-18T11:54:03.901Z,5.20
2019-05-18T11:56:30.633Z,5.63
2019-05-18T11:58:57.307Z,5.40
2019-05-18T12:01:24.438Z,5.83
2019-05-18T12:03:53.058Z,5.40
2019-05-18T12:06:20.092Z,5.47
2019-05-18T12:08:46.856Z,5.60
2019-05-18T12:11:13.624Z,4.50
2019-05-18T12:13:40.306Z,5.17
2019-05-18T12:16:07.305Z,4.70
2019-05-18T12:18:34.320Z,5.93
2019-05-18T12:21:01.058Z,4.97
2019-05-18T12:23:27.835Z,4.90
2019-05-18T12:25:54.584Z,4.23
2019-05-18T12:28:22.811Z,4.40
2019-05-18T12:30:49.544Z,4.90
2019-05-18T12:33:17.215Z,5.10
2019-05-18T12:35:43.927Z,4.73
2019-05-18T12:38:10.644Z,4.17
2019-05-18T12:40:37.371Z,4.27
2019-05-18T12:43:04.670Z,4.53
2019-05-18T12:45:32.557Z,7.10
2019-05-18T12:47:59.447Z,4.43
2019-05-18T12:50:26.595Z,4.30
2019-05-18T12:52:53.335Z,3.90
2019-05-18T12:55:20.043Z,4.40
2019-05-18T12:57:46.885Z,4.20
2019-05-18T13:00:13.641Z,3.70
2019-05-18T13:02:40.385Z,3.77
2019-05-18T13:05:08.296Z,4.07
2019-05-18T13:07:35.057Z,4.97
2019-05-18T13:10:01.908Z,4.20
2019-05-18T13:12:28.639Z,4.63
2019-05-18T13:14:59.897Z,4.43
2019-05-18T13:17:26.633Z,4.43
2019-05-18T13:19:53.774Z,4.10
2019-05-18T13:22:20.623Z,4.10
2019-05-18T13:24:47.338Z,5.13
2019-05-18T13:27:14.092Z,4.27
2019-05-18T13:29:40.885Z,4.43
2019-05-18T13:32:07.921Z,4.03
2019-05-18T13:34:34.953Z,4.43
2019-05-18T13:37:01.699Z,4.40
2019-05-18T13:39:28.517Z,4.00
2019-05-18T13:41:55.269Z,3.70
2019-05-18T13:44:22.109Z,4.03
2019-05-18T13:46:51.804Z,3.80
2019-05-18T13:49:18.881Z,4.33
2019-05-18T13:51:45.685Z,4.40
2019-05-18T13:54:14.563Z,4.20
2019-05-18T13:56:43.405Z,4.40
2019-05-18T13:59:10.126Z,3.57
2019-05-18T14:01:37.635Z,4.13
2019-05-18T14:04:04.348Z,8.10
2019-05-18T14:06:31.748Z,3.70
2019-05-18T14:08:58.503Z,3.40
2019-05-18T14:11:25.588Z,3.17
2019-05-18T14:13:52.301Z,2.70
2019-05-18T14:16:19.054Z,2.60
2019-05-18T14:18:46.943Z,2.50
2019-05-18T14:21:13.856Z,2.83
2019-05-18T14:23:40.599Z,2.50
2019-05-18T14:26:07.510Z,2.47
2019-05-18T14:28:34.245Z,2.60
2019-05-18T14:31:00.993Z,2.90
2019-05-18T14:33:27.723Z,2.50
2019-05-18T14:35:54.431Z,2.40
2019-05-18T14:38:21.429Z,2.30
2019-05-18T14:40:48.229Z,2.40
2019-05-18T14:43:15.435Z,3.00
2019-05-18T14:45:42.384Z,2.97
2019-05-18T14:48:09.106Z,3.50
2019-05-18T14:50:41.113Z,3.87
2019-05-18T14:53:07.840Z,4.37
2019-05-18T14:55:34.551Z,4.70
2019-05-18T14:58:02.973Z,4.50
2019-05-18T15:00:29.721Z,3.87
2019-05-18T15:02:56.998Z,4.00
2019-05-18T15:05:23.838Z,9.37
2019-05-18T15:07:50.843Z,4.73
2019-05-18T15:10:17.564Z,4.47
2019-05-18T15:12:46.194Z,3.93
2019-05-18T15:15:14.465Z,4.83
2019-05-18T15:17:41.187Z,3.93
2019-05-18T15:20:07.887Z,4.00
2019-05-18T15:22:37.384Z,4.63
2019-05-18T15:25:04.924Z,4.87
2019-05-18T15:27:32.331Z,4.60
2019-05-18T15:29:59.051Z,4.73
2019-05-18T15:32:25.809Z,4.13
2019-05-18T15:34:52.547Z,3.47
2019-05-18T15:37:19.328Z,4.67
2019-05-18T15:39:46.072Z,4.67
2019-05-18T15:42:13.223Z,3.63
2019-05-18T15:44:40.024Z,3.57
2019-05-18T15:47:06.970Z,4.33
2019-05-18T15:49:34.259Z,3.83
2019-05-18T15:52:01.143Z,3.90
2019-05-18T15:54:27.885Z,3.93
2019-05-18T15:56:54.630Z,4.03
2019-05-18T15:59:24.266Z,4.23
2019-05-18T16:01:51.035Z,4.70
2019-05-18T16:04:18.652Z,4.10
2019-05-18T16:06:45.801Z,4.70
2019-05-18T16:09:14.784Z,4.50
2019-05-18T16:11:44.648Z,4.30
2019-05-18T16:14:11.628Z,4.23
2019-05-18T16:16:38.361Z,4.50
2019-05-18T16:19:05.539Z,4.27
2019-05-18T16:21:32.275Z,4.23
2019-05-18T16:23:59.015Z,4.50
2019-05-18T16:26:27.952Z,4.73
2019-05-18T16:28:57.042Z,4.87
2019-05-18T16:31:23.738Z,4.63
2019-05-18T16:33:50.446Z,4.57
2019-05-18T16:36:17.187Z,4.20
2019-05-18T16:38:44.752Z,3.70
2019-05-18T16:41:11.484Z,4.13
2019-05-18T16:43:38.210Z,3.90
2019-05-18T16:46:05.360Z,3.50
2019-05-18T16:48:32.250Z,4.33
2019-05-18T16:51:00.765Z,4.53
2019-05-18T16:53:27.562Z,4.13
2019-05-18T16:55:54.319Z,3.83
2019-05-18T16:58:21.048Z,4.00
2019-05-18T17:00:48.562Z,3.60
2019-05-18T17:03:15.308Z,4.20
2019-05-18T17:05:43.727Z,4.03
2019-05-18T17:08:10.494Z,3.90
2019-05-18T17:10:37.570Z,4.23
2019-05-18T17:13:04.268Z,4.10
2019-05-18T17:15:31.056Z,4.60
2019-05-18T17:17:57.959Z,5.10
2019-05-18T17:20:24.694Z,4.43
2019-05-18T17:22:51.777Z,5.23
2019-05-18T17:25:18.532Z,4.67
2019-05-18T17:27:45.364Z,4.37
2019-05-18T17:30:12.302Z,3.97
2019-05-18T17:32:39.120Z,4.33
2019-05-18T17:35:09.040Z,4.43
2019-05-18T17:37:35.806Z,4.50
2019-05-18T17:40:03.058Z,4.47
2019-05-18T17:42:30.300Z,3.80
2019-05-18T17:44:57.016Z,3.70
2019-05-18T17:47:23.753Z,3.87
2019-05-18T17:49:50.595Z,3.90
2019-05-18T17:52:17.341Z,3.97
2019-05-18T17:54:44.162Z,4.27
2019-05-18T17:57:10.928Z,3.77
2019-05-18T17:59:40.054Z,3.13
2019-05-18T18:02:06.894Z,2.83
2019-05-18T18:04:33.612Z,2.40
2019-05-18T18:07:02.193Z,2.30
2019-05-18T18:09:29.028Z,2.00
2019-05-18T18:11:55.804Z,2.57
2019-05-18T18:14:22.614Z,2.17
2019-05-18T18:16:49.548Z,2.40
2019-05-18T18:19:16.319Z,2.40
2019-05-18T18:21:43.048Z,2.13
2019-05-18T18:24:09.819Z,2.10
2019-05-18T18:26:36.576Z,2.07
2019-05-18T18:29:04.317Z,2.07
2019-05-18T18:31:31.269Z,2.30
2019-05-18T18:33:57.995Z,2.07
2019-05-18T18:36:25.056Z,1.97
2019-05-18T18:38:51.825Z,2.33
2019-05-18T18:41:19.464Z,2.73
2019-05-18T18:43:48.248Z,2.30
2019-05-18T18:46:14.902Z,2.23
2019-05-18T18:48:41.618Z,2.80
2019-05-18T18:51:08.550Z,2.60
2019-05-18T18:53:35.300Z,3.30
2019-05-18T18:56:02.048Z,2.20
2019-05-18T18:58:28.760Z,7.13
2019-05-18T19:00:55.488Z,2.20
2019-05-18T19:03:22.210Z,2.37
2019-05-18T19:05:49.267Z,2.27
2019-05-18T19:08:15.992Z,2.90
2019-05-18T19:11:05.148Z,2.40
2019-05-18T23:02:52.717Z,3.37
2019-05-18T23:05:19.512Z,3.67
2019-05-18T23:07:46.260Z,4.03
2019-05-18T23:10:13.034Z,3.97
2019-05-18T23:12:39.808Z,4.03
2019-05-18T23:15:06.554Z,3.67
2019-05-18T23:17:33.357Z,3.10
2019-05-18T23:20:00.508Z,3.30
2019-05-18T23:22:27.257Z,3.70
2019-05-18T23:24:53.988Z,3.40
2019-05-18T23:27:20.771Z,3.50
2019-05-18T23:29:50.220Z,3.57
2019-05-18T23:32:16.997Z,3.93
2019-05-18T23:34:46.292Z,4.00
2019-05-18T23:37:13.251Z,4.70
2019-05-18T23:39:40.035Z,3.57
2019-05-18T23:42:09.250Z,3.97
2019-05-18T23:44:36.605Z,3.40
2019-05-18T23:47:03.667Z,3.07
2019-05-18T23:49:30.423Z,3.57
2019-05-18T23:51:57.199Z,3.80
2019-05-18T23:54:24.494Z,3.40
2019-05-18T23:56:54.616Z,3.33
2019-05-18T23:59:24.621Z,3.43
